Time;durP1;ratioP1;P1;durP2;ratioP2;P2;SDS_P1;SDS_P2;PMS_P1;PMS_P2;Temp;Humidity;BMP_temperature;BMP_pressure;BME280_temperature;BME280_humidity;BME280_pressure;Samples;Min_cycle;Max_cycle;Signal;HPM_P1;HPM_P2
2021/10/25 00:01:07;;;;;;;;;;;7.90;95.40;;;;;;5097938;28;19908;-74
2021/10/25 00:03:32;;;;;;;;;;;7.90;95.40;;;;;;5079424;28;19908;-74
2021/10/25 00:05:58;;;;;;;;;;;7.90;95.40;;;;;;5097719;28;19915;-75
2021/10/25 00:08:23;;;;;;;;;;;7.80;95.30;;;;;;5097532;28;19908;-74
2021/10/25 00:10:49;;;;;;;;;;;7.80;95.30;;;;;;5097191;28;19916;-74
2021/10/25 00:13:15;;;;;;;;;;;7.80;95.40;;;;;;5097585;28;20002;-74
2021/10/25 00:15:41;;;;;;;;;;;7.80;95.30;;;;;;5097394;28;19948;-75
2021/10/25 00:18:06;;;;;;;;;;;7.70;95.30;;;;;;5097440;28;19908;-75
2021/10/25 00:20:32;;;;;;;;;;;7.80;95.40;;;;;;5079300;28;19918;-75
2021/10/25 00:22:58;;;;;;;;;;;7.70;95.30;;;;;;5097525;28;19974;-75
2021/10/25 00:25:23;;;;;;;;;;;7.70;95.30;;;;;;5096596;28;19987;-75
2021/10/25 00:27:48;;;;;;;;;;;7.70;95.30;;;;;;5097279;28;19959;-74
2021/10/25 00:30:14;;;;;;;;;;;7.70;95.30;;;;;;5097166;28;19959;-74
2021/10/25 00:32:40;;;;;;;;;;;7.70;95.30;;;;;;5097196;28;19908;-74
2021/10/25 00:35:06;;;;;;;;;;;7.70;95.30;;;;;;5097124;28;19908;-74
2021/10/25 00:37:31;;;;;;;;;;;7.60;95.30;;;;;;5097016;28;19912;-74
2021/10/25 00:39:57;;;;;;;;;;;7.60;95.30;;;;;;5096524;28;20273;-74
2021/10/25 00:42:23;;;;;;;;;;;7.60;95.30;;;;;;5097089;28;19970;-74
2021/10/25 00:44:48;;;;;;;;;;;7.50;95.20;;;;;;5096938;28;19908;-75
2021/10/25 00:47:14;;;;;;;;;;;7.50;95.20;;;;;;5096756;28;19927;-75
2021/10/25 00:49:39;;;;;;;;;;;7.50;95.30;;;;;;5078559;28;19916;-74
2021/10/25 00:52:05;;;;;;;;;;;7.50;95.30;;;;;;5096676;28;19910;-73
2021/10/25 00:54:32;;;;;;;;;;;7.50;95.30;;;;;;5078116;28;19959;-74
2021/10/25 00:56:59;;;;;;;;;;;7.50;95.30;;;;;;5096798;28;20265;-75
2021/10/25 00:59:24;;;;;;;;;;;7.50;95.30;;;;;;5096604;28;20418;-74
2021/10/25 01:01:50;;;;;;;;;;;7.50;95.30;;;;;;5096520;28;19908;-74
2021/10/25 01:04:16;;;;;;;;;;;7.50;95.30;;;;;;5078433;28;19955;-74
2021/10/25 01:06:42;;;;;;;;;;;7.50;95.30;;;;;;5096556;28;19912;-74
2021/10/25 01:09:08;;;;;;;;;;;7.50;95.30;;;;;;5095571;28;19923;-75
2021/10/25 01:11:34;;;;;;;;;;;7.50;95.30;;;;;;5096325;28;20002;-75
2021/10/25 01:14:01;;;;;;;;;;;7.50;95.30;;;;;;5096371;28;19909;-75
2021/10/25 01:16:27;;;;;;;;;;;7.50;95.30;;;;;;5096365;28;19908;-74
2021/10/25 01:18:55;;;;;;;;;;;7.50;95.30;;;;;;5078111;28;20284;-75
2021/10/25 01:21:21;;;;;;;;;;;7.50;95.30;;;;;;5077741;28;19934;-74
2021/10/25 01:23:46;;;;;;;;;;;7.50;95.30;;;;;;5096163;28;20361;-74
2021/10/25 01:26:13;;;;;;;;;;;7.50;95.30;;;;;;5078031;28;20361;-74
2021/10/25 01:28:40;;;;;;;;;;;7.50;95.30;;;;;;5095826;28;19910;-75
2021/10/25 01:31:06;;;;;;;;;;;7.50;95.30;;;;;;5095980;28;19998;-75
2021/10/25 01:33:33;;;;;;;;;;;7.50;95.30;;;;;;5096105;28;19992;-75
2021/10/25 01:35:58;;;;;;;;;;;7.50;95.30;;;;;;5095468;28;19909;-75
2021/10/25 01:38:24;;;;;;;;;;;7.50;95.30;;;;;;5095891;28;19909;-74
2021/10/25 01:40:50;;;;;;;;;;;7.50;95.30;;;;;;5095881;28;19908;-75
2021/10/25 01:43:15;;;;;;;;;;;7.50;95.30;;;;;;5096023;28;20383;-75
2021/10/25 01:45:40;;;;;;;;;;;7.50;95.30;;;;;;5095618;28;19916;-74
2021/10/25 01:48:06;;;;;;;;;;;7.50;95.40;;;;;;5095661;28;19915;-75
2021/10/25 01:50:31;;;;;;;;;;;7.50;95.40;;;;;;5095251;28;19920;-74
2021/10/25 01:53:00;;;;;;;;;;;7.50;95.40;;;;;;5095709;28;19912;-74
2021/10/25 01:55:25;;;;;;;;;;;7.50;95.40;;;;;;5095698;28;19931;-74
2021/10/25 01:57:51;;;;;;;;;;;7.50;95.40;;;;;;5095557;28;20296;-74
2021/10/25 02:00:16;;;;;;;;;;;7.50;95.40;;;;;;5095321;28;19977;-74
2021/10/25 02:02:42;;;;;;;;;;;7.60;95.40;;;;;;5095498;28;19909;-74
2021/10/25 02:05:07;;;;;;;;;;;7.60;95.40;;;;;;5076909;28;19909;-75
2021/10/25 02:07:33;;;;;;;;;;;7.70;95.40;;;;;;5095628;28;20376;-74
2021/10/25 02:09:58;;;;;;;;;;;7.80;95.40;;;;;;5095139;28;19916;-75
2021/10/25 02:12:24;;;;;;;;;;;7.90;95.40;;;;;;5095257;28;19908;-74
2021/10/25 02:14:50;;;;;;;;;;;8.00;95.40;;;;;;5095193;28;19931;-74
2021/10/25 02:17:15;;;;;;;;;;;8.10;95.40;;;;;;5077000;28;19915;-74
2021/10/25 02:19:41;;;;;;;;;;;8.20;95.40;;;;;;5093742;28;19919;-74
2021/10/25 02:22:07;;;;;;;;;;;8.30;95.40;;;;;;5094982;28;19908;-75
2021/10/25 02:24:33;;;;;;;;;;;8.30;95.40;;;;;;5094974;28;19995;-74
2021/10/25 02:26:59;;;;;;;;;;;8.30;95.40;;;;;;5094975;28;19943;-74
2021/10/25 02:29:25;;;;;;;;;;;8.40;95.40;;;;;;5094925;28;19999;-75
2021/10/25 02:31:50;;;;;;;;;;;8.40;95.40;;;;;;5094896;28;19958;-73
2021/10/25 02:34:16;;;;;;;;;;;8.50;95.40;;;;;;5094157;28;19908;-75
2021/10/25 02:36:44;;;;;;;;;;;8.50;95.40;;;;;;5094895;28;19912;-74
2021/10/25 02:39:10;;;;;;;;;;;8.50;95.50;;;;;;5076621;28;20328;-74
2021/10/25 02:41:37;;;;;;;;;;;8.60;95.50;;;;;;5094855;28;19947;-75
2021/10/25 02:44:02;;;;;;;;;;;8.60;95.50;;;;;;5094397;28;19953;-74
2021/10/25 02:46:27;;;;;;;;;;;8.70;95.50;;;;;;5094387;28;20325;-75
2021/10/25 02:48:53;;;;;;;;;;;8.70;95.50;;;;;;5094096;28;19908;-75
2021/10/25 02:51:18;;;;;;;;;;;8.80;95.50;;;;;;5094723;28;19908;-74
2021/10/25 02:53:44;;;;;;;;;;;8.80;95.50;;;;;;5094409;28;19908;-74
2021/10/25 02:56:09;;;;;;;;;;;8.90;95.50;;;;;;5094457;28;20292;-74
2021/10/25 02:58:35;;;;;;;;;;;8.90;95.50;;;;;;5094370;28;20273;-74
2021/10/25 03:01:00;;;;;;;;;;;8.90;95.50;;;;;;5076148;28;20014;-75
2021/10/25 03:03:26;;;;;;;;;;;8.90;95.50;;;;;;5093711;28;19955;-74
2021/10/25 03:05:51;;;;;;;;;;;9.00;95.50;;;;;;5094473;28;19912;-74
2021/10/25 03:08:17;;;;;;;;;;;9.00;95.60;;;;;;5094160;28;20344;-74
2021/10/25 03:10:43;;;;;;;;;;;9.00;95.50;;;;;;5094090;28;20404;-74
2021/10/25 03:13:08;;;;;;;;;;;9.10;95.50;;;;;;5094228;28;19909;-74
2021/10/25 03:15:34;;;;;;;;;;;9.10;95.50;;;;;;5094203;28;19908;-74
2021/10/25 03:17:59;;;;;;;;;;;9.00;95.50;;;;;;5093488;28;19915;-75
2021/10/25 03:20:25;;;;;;;;;;;9.00;95.50;;;;;;5076017;28;19915;-75
2021/10/25 03:22:50;;;;;;;;;;;9.10;95.60;;;;;;5094030;28;19908;-75
2021/10/25 03:25:16;;;;;;;;;;;9.10;95.60;;;;;;5094024;28;19915;-74
2021/10/25 03:27:42;;;;;;;;;;;9.10;95.60;;;;;;5093986;28;19948;-75
2021/10/25 03:30:07;;;;;;;;;;;9.10;95.60;;;;;;5075501;28;19920;-75
2021/10/25 03:32:33;;;;;;;;;;;9.10;95.60;;;;;;5093399;28;19977;-75
2021/10/25 03:34:58;;;;;;;;;;;9.20;95.60;;;;;;5093926;28;19915;-75
2021/10/25 03:37:24;;;;;;;;;;;9.20;95.60;;;;;;5093915;28;19962;-74
2021/10/25 03:39:51;;;;;;;;;;;9.10;95.60;;;;;;5093696;28;19916;-74
2021/10/25 03:42:26;;;;;;;;;;;9.20;95.60;;;;;;5093882;28;19908;-74
2021/10/25 03:45:07;;;;;;;;;;;9.20;95.60;;;;;;5093877;28;19916;-74
2021/10/25 03:47:41;;;;;;;;;;;9.20;95.60;;;;;;5093054;28;19921;-74
2021/10/25 03:52:39;;;;;;;;;;;9.30;95.60;;;;;;5093760;28;19912;-75
2021/10/25 03:55:13;;;;;;;;;;;9.30;95.60;;;;;;5093625;28;20304;-74
2021/10/25 04:00:41;;;;;;;;;;;9.30;95.70;;;;;;5093893;28;20330;-74
2021/10/25 04:27:41;;;;;;;;;;;9.50;95.80;;;;;;5093818;28;19923;-75
2021/10/25 04:30:07;;;;;;;;;;;9.50;95.70;;;;;;5092723;28;20383;-75
2021/10/25 04:32:32;;;;;;;;;;;9.60;95.80;;;;;;5093185;28;19908;-75
2021/10/25 04:34:58;;;;;;;;;;;9.60;96.00;;;;;;5093373;28;19908;-75
2021/10/25 04:37:23;;;;;;;;;;;9.60;95.70;;;;;;5093240;28;20276;-74
2021/10/25 04:39:49;;;;;;;;;;;9.60;95.70;;;;;;5093330;28;19943;-74
2021/10/25 04:42:16;;;;;;;;;;;9.60;95.70;;;;;;5093384;28;20311;-75
2021/10/25 04:44:43;;;;;;;;;;;9.60;95.70;;;;;;5078270;28;19912;-74
2021/10/25 04:47:08;;;;;;;;;;;9.60;95.70;;;;;;5096714;28;19919;-74
2021/10/25 04:49:34;;;;;;;;;;;9.60;95.70;;;;;;5096821;28;20257;-75
2021/10/25 04:51:59;;;;;;;;;;;9.70;95.70;;;;;;5096917;28;19908;-74
2021/10/25 04:54:24;;;;;;;;;;;9.70;95.70;;;;;;5097065;28;19915;-74
2021/10/25 04:56:50;;;;;;;;;;;9.70;95.70;;;;;;5096682;28;19908;-73
2021/10/25 04:59:17;;;;;;;;;;;9.70;95.60;;;;;;5096218;28;20395;-74
2021/10/25 05:01:42;;;;;;;;;;;9.70;95.70;;;;;;5096668;28;20010;-75
2021/10/25 05:04:08;;;;;;;;;;;9.80;95.60;;;;;;5096624;28;19991;-75
2021/10/25 05:06:33;;;;;;;;;;;9.80;95.60;;;;;;5096426;28;19934;-75
2021/10/25 05:08:58;;;;;;;;;;;9.80;95.60;;;;;;5096441;28;19962;-75
2021/10/25 05:11:24;;;;;;;;;;;9.80;95.60;;;;;;5096477;28;19939;-75
2021/10/25 05:13:49;;;;;;;;;;;9.80;95.60;;;;;;5095926;28;20343;-75
2021/10/25 05:16:15;;;;;;;;;;;9.80;95.60;;;;;;5096355;28;19908;-75
2021/10/25 05:18:40;;;;;;;;;;;9.80;95.60;;;;;;5096276;28;19909;-75
2021/10/25 05:21:06;;;;;;;;;;;9.80;95.60;;;;;;5096298;28;20383;-74
2021/10/25 05:23:31;;;;;;;;;;;9.90;95.60;;;;;;5096520;28;20375;-74
2021/10/25 05:25:56;;;;;;;;;;;9.90;95.60;;;;;;5096209;28;19907;-74
2021/10/25 05:28:22;;;;;;;;;;;9.80;95.60;;;;;;5077480;28;20074;-75
2021/10/25 05:30:47;;;;;;;;;;;9.80;95.60;;;;;;5095995;28;19916;-75
2021/10/25 05:33:13;;;;;;;;;;;9.90;95.70;;;;;;5096070;28;20391;-74
2021/10/25 05:35:38;;;;;;;;;;;9.90;95.70;;;;;;5096210;28;19908;-74
2021/10/25 05:38:04;;;;;;;;;;;9.90;95.70;;;;;;5077769;28;20007;-74
2021/10/25 05:40:30;;;;;;;;;;;9.90;95.70;;;;;;5095857;28;19908;-74
2021/10/25 05:42:56;;;;;;;;;;;10.00;95.70;;;;;;5095440;28;20366;-74
2021/10/25 05:45:22;;;;;;;;;;;10.00;95.60;;;;;;5095849;28;19919;-75
2021/10/25 05:47:50;;;;;;;;;;;10.00;95.60;;;;;;5095506;28;20007;-74
2021/10/25 05:50:15;;;;;;;;;;;10.00;95.60;;;;;;5095550;28;19916;-75
2021/10/25 05:52:41;;;;;;;;;;;10.10;95.60;;;;;;5095713;28;19919;-74
2021/10/25 05:55:06;;;;;;;;;;;10.10;95.70;;;;;;5095455;28;19953;-75
2021/10/25 05:57:32;;;;;;;;;;;10.10;95.60;;;;;;5094904;28;19957;-74
2021/10/25 05:59:58;;;;;;;;;;;10.10;95.60;;;;;;5095448;28;19998;-74
2021/10/25 06:02:27;;;;;;;;;;;10.20;95.70;;;;;;5095473;28;20326;-75
2021/10/25 06:04:53;;;;;;;;;;;10.20;95.60;;;;;;5095520;28;19908;-74
2021/10/25 06:07:18;;;;;;;;;;;10.20;95.60;;;;;;5095326;28;19916;-74
2021/10/25 06:09:45;;;;;;;;;;;10.20;95.60;;;;;;5095089;28;19917;-73
2021/10/25 06:12:15;;;;;;;;;;;10.20;95.60;;;;;;5094897;28;19931;-74
2021/10/25 06:14:43;;;;;;;;;;;10.10;95.70;;;;;;5095226;28;19908;-75
2021/10/25 06:17:25;;;;;;;;;;;10.20;95.70;;;;;;5095113;28;19908;-74
2021/10/25 06:19:51;;;;;;;;;;;10.20;95.70;;;;;;5095233;28;19914;-78
2021/10/25 06:22:19;;;;;;;;;;;10.30;95.80;;;;;;5095027;28;19908;-77
2021/10/25 06:24:45;;;;;;;;;;;10.20;95.70;;;;;;5094857;28;19909;-75
2021/10/25 06:27:11;;;;;;;;;;;10.30;95.70;;;;;;5076297;28;19943;-75
2021/10/25 06:29:37;;;;;;;;;;;10.30;95.70;;;;;;5094878;28;20357;-76
2021/10/25 06:32:03;;;;;;;;;;;10.30;95.70;;;;;;5094861;28;19981;-76
2021/10/25 06:34:34;;;;;;;;;;;10.30;95.70;;;;;;5094754;28;19949;-77
2021/10/25 06:36:59;;;;;;;;;;;10.40;95.70;;;;;;5094994;28;19961;-76
2021/10/25 06:39:32;;;;;;;;;;;10.40;95.70;;;;;;5094751;28;19912;-77
2021/10/25 06:41:58;;;;;;;;;;;10.40;95.70;;;;;;5094202;28;20284;-78
2021/10/25 06:44:24;;;;;;;;;;;10.30;95.70;;;;;;5094654;28;19919;-77
2021/10/25 06:46:49;;;;;;;;;;;10.40;95.70;;;;;;5072908;28;19925;-78
2021/10/25 06:49:15;;;;;;;;;;;10.40;95.70;;;;;;5074243;28;19916;-79
2021/10/25 06:51:40;;;;;;;;;;;10.40;95.70;;;;;;5073067;28;19958;-78
2021/10/25 06:54:07;;;;;;;;;;;10.40;95.70;;;;;;5073526;28;21255;-77
2021/10/25 06:56:33;;;;;;;;;;;10.50;95.70;;;;;;5073490;28;19915;-77
2021/10/25 06:58:58;;;;;;;;;;;10.50;95.70;;;;;;5074180;28;20409;-77
2021/10/25 07:01:25;;;;;;;;;;;10.50;95.70;;;;;;5074120;28;20307;-75
2021/10/25 07:03:52;;;;;;;;;;;10.50;95.70;;;;;;5074171;28;20344;-76
2021/10/25 07:06:18;;;;;;;;;;;10.60;96.00;;;;;;5073680;28;19951;-75
2021/10/25 07:08:47;;;;;;;;;;;10.60;95.80;;;;;;5074036;28;19908;-77
2021/10/25 07:11:15;;;;;;;;;;;10.60;95.70;;;;;;5073500;28;20382;-78
2021/10/25 07:13:45;;;;;;;;;;;10.60;95.70;;;;;;5074038;28;20053;-78
2021/10/25 07:16:24;;;;;;;;;;;10.60;95.70;;;;;;5073975;28;19962;-78
2021/10/25 07:19:03;;;;;;;;;;;10.70;95.80;;;;;;5073970;28;20381;-77
2021/10/25 07:27:26;;;;;;;;;;;10.80;95.80;;;;;;5074053;28;19916;-78
2021/10/25 08:00:50;;;;;;;;;;;11.00;95.80;;;;;;5011788;28;20011;-74
2021/10/25 08:03:42;;;;;;;;;;;11.10;95.80;;;;;;5029911;28;19916;-75
2021/10/25 08:08:47;;;;;;;;;;;11.00;95.80;;;;;;5073128;28;19909;-73
2021/10/25 08:11:13;;;;;;;;;;;11.00;95.80;;;;;;5073386;28;20361;-73
2021/10/25 08:13:41;;;;;;;;;;;11.10;95.80;;;;;;5073300;28;19909;-73
2021/10/25 08:16:21;;;;;;;;;;;11.20;95.80;;;;;;5073198;28;19909;-73
2021/10/25 08:21:14;;;;;;;;;;;11.30;95.80;;;;;;5077223;28;20337;-72
2021/10/25 08:23:40;;;;;;;;;;;11.30;95.70;;;;;;5076713;28;20273;-73
2021/10/25 08:26:07;;;;;;;;;;;11.30;95.70;;;;;;5077144;28;19916;-72
2021/10/25 08:28:33;;;;;;;;;;;11.40;95.70;;;;;;5076990;28;19908;-73
2021/10/25 08:31:00;;;;;;;;;;;11.40;95.70;;;;;;5076917;28;20270;-73
2021/10/25 08:35:59;;;;;;;;;;;11.50;95.70;;;;;;5076987;28;19909;-72
2021/10/25 08:41:09;;;;;;;;;;;11.50;95.60;;;;;;5076787;28;19916;-72
2021/10/25 08:43:35;;;;;;;;;;;11.50;95.60;;;;;;5076728;28;19916;-70
2021/10/25 08:46:04;;;;;;;;;;;11.50;95.60;;;;;;5081850;28;19920;-72
2021/10/25 08:48:30;;;;;;;;;;;11.60;95.70;;;;;;5096982;28;20313;-73
2021/10/25 08:50:56;;;;;;;;;;;11.60;95.60;;;;;;5096239;28;19962;-73
2021/10/25 08:53:22;;;;;;;;;;;11.60;95.60;;;;;;5096828;28;19957;-72
2021/10/25 08:55:50;;;;;;;;;;;11.60;95.60;;;;;;5096883;28;20318;-72
2021/10/25 08:58:16;;;;;;;;;;;11.70;95.70;;;;;;5096667;28;19908;-73
2021/10/25 09:00:43;;;;;;;;;;;11.70;95.70;;;;;;5096693;28;19912;-73
2021/10/25 09:03:09;;;;;;;;;;;11.70;95.60;;;;;;5078606;28;19908;-73
2021/10/25 09:05:35;;;;;;;;;;;11.70;95.60;;;;;;5096030;28;19931;-74
2021/10/25 09:08:03;;;;;;;;;;;11.70;95.60;;;;;;5096593;28;19915;-73
2021/10/25 09:10:39;;;;;;;;;;;11.80;95.70;;;;;;5096438;28;19916;-72
2021/10/25 09:13:06;;;;;;;;;;;11.80;95.60;;;;;;5096509;28;19992;-73
2021/10/25 09:15:32;;;;;;;;;;;11.90;95.60;;;;;;5096369;28;19912;-73
2021/10/25 09:18:22;;;;;;;;;;;11.90;95.60;;;;;;5096347;28;19908;-73
2021/10/25 09:20:51;;;;;;;;;;;11.90;95.60;;;;;;5095732;28;19908;-73
2021/10/25 09:23:21;;;;;;;;;;;12.00;95.60;;;;;;5096276;28;19908;-73
2021/10/25 09:25:51;;;;;;;;;;;12.00;95.60;;;;;;5096273;28;19930;-73
2021/10/25 09:28:20;;;;;;;;;;;12.00;95.90;;;;;;5095643;28;19908;-72
2021/10/25 09:30:46;;;;;;;;;;;12.00;95.60;;;;;;5095945;28;20260;-73
2021/10/25 09:33:19;;;;;;;;;;;12.00;95.60;;;;;;5096128;28;20380;-72
2021/10/25 09:35:47;;;;;;;;;;;12.00;95.60;;;;;;5095683;28;19908;-74
2021/10/25 09:49:02;;;;;;;;;;;12.10;95.60;;;;;;5033007;28;19909;-73
2021/10/25 09:51:28;;;;;;;;;;;12.00;95.60;;;;;;5033572;28;20409;-74
2021/10/25 09:53:57;;;;;;;;;;;12.10;95.60;;;;;;5033499;28;19997;-74
2021/10/25 09:56:31;;;;;;;;;;;12.10;95.80;;;;;;5033561;28;20318;-73
2021/10/25 10:01:42;;;;;;;;;;;12.10;95.60;;;;;;5033302;28;20358;-73
2021/10/25 10:04:09;;;;;;;;;;;12.20;95.60;;;;;;5016147;28;19909;-73
2021/10/25 10:06:35;;;;;;;;;;;12.20;95.60;;;;;;5033320;28;20004;-74
2021/10/25 10:09:01;;;;;;;;;;;12.30;95.60;;;;;;5033147;28;20301;-73
2021/10/25 10:11:27;;;;;;;;;;;12.20;95.50;;;;;;5032932;28;19915;-75
2021/10/25 10:13:53;;;;;;;;;;;12.20;95.60;;;;;;5033106;28;20358;-73
2021/10/25 10:16:18;;;;;;;;;;;12.20;95.60;;;;;;5033080;28;19909;-73
2021/10/25 10:18:47;;;;;;;;;;;12.10;95.60;;;;;;5079201;28;19908;-73
2021/10/25 10:21:13;;;;;;;;;;;12.10;95.60;;;;;;5095010;28;19912;-72
2021/10/25 10:23:42;;;;;;;;;;;12.10;95.60;;;;;;5095072;28;19908;-73
2021/10/25 10:26:12;;;;;;;;;;;12.10;95.70;;;;;;5094976;28;20372;-72
2021/10/25 10:28:40;;;;;;;;;;;12.10;95.70;;;;;;5094960;28;20075;-73
2021/10/25 10:31:10;;;;;;;;;;;12.20;95.70;;;;;;5094929;28;19963;-73
2021/10/25 10:33:35;;;;;;;;;;;12.20;95.70;;;;;;5094479;28;19908;-72
2021/10/25 10:36:14;;;;;;;;;;;12.20;95.70;;;;;;5094904;28;20507;-73
2021/10/25 10:38:48;;;;;;;;;;;12.30;95.60;;;;;;5094624;28;19908;-73
2021/10/25 10:41:14;;;;;;;;;;;12.30;95.60;;;;;;5093917;28;20277;-73
2021/10/25 10:43:40;;;;;;;;;;;12.30;95.60;;;;;;5094769;28;19931;-73
2021/10/25 10:46:12;;;;;;;;;;;12.30;95.60;;;;;;5094503;28;19920;-74
2021/10/25 10:48:39;;;;;;;;;;;12.40;95.60;;;;;;5094215;28;19909;-74
2021/10/25 10:51:07;;;;;;;;;;;12.40;95.60;;;;;;5094315;28;19961;-74
2021/10/25 10:53:37;;;;;;;;;;;12.50;95.60;;;;;;5094427;28;19908;-73
2021/10/25 10:56:17;;;;;;;;;;;12.50;95.60;;;;;;5094514;28;19908;-74
2021/10/25 11:01:13;;;;;;;;;;;12.60;95.60;;;;;;5094518;28;19918;-75
2021/10/25 11:03:38;;;;;;;;;;;12.60;95.70;;;;;;5093844;28;19908;-75
2021/10/25 11:06:11;;;;;;;;;;;12.60;95.70;;;;;;5075995;28;20006;-74
2021/10/25 11:08:38;;;;;;;;;;;12.60;95.60;;;;;;5094274;28;19908;-73
2021/10/25 11:11:08;;;;;;;;;;;12.70;95.70;;;;;;5094126;28;19915;-75
2021/10/25 11:13:37;;;;;;;;;;;12.70;95.70;;;;;;5094195;28;19952;-74
2021/10/25 11:18:37;;;;;;;;;;;12.80;95.70;;;;;;5094139;28;19908;-74
2021/10/25 11:21:06;;;;;;;;;;;12.90;95.70;;;;;;5094004;28;19908;-75
2021/10/25 11:23:36;;;;;;;;;;;12.90;95.70;;;;;;5075950;28;20360;-74
2021/10/25 11:26:09;;;;;;;;;;;12.90;95.60;;;;;;5093931;28;19951;-74
2021/10/25 11:28:34;;;;;;;;;;;12.90;95.60;;;;;;5094030;28;19937;-75
2021/10/25 11:31:01;;;;;;;;;;;13.00;95.70;;;;;;5093356;28;20014;-73
2021/10/25 11:33:28;;;;;;;;;;;13.00;95.60;;;;;;5093762;28;19950;-73
2021/10/25 11:35:54;;;;;;;;;;;13.00;95.60;;;;;;5094000;28;19908;-74
2021/10/25 11:38:19;;;;;;;;;;;13.00;95.70;;;;;;5093914;28;19914;-75
2021/10/25 11:40:46;;;;;;;;;;;13.10;95.80;;;;;;5093688;28;20287;-75
2021/10/25 11:43:12;;;;;;;;;;;13.30;95.90;;;;;;5093759;28;19923;-73
2021/10/25 11:45:37;;;;;;;;;;;13.40;95.70;;;;;;5093124;28;19908;-74
2021/10/25 11:48:03;;;;;;;;;;;13.60;95.80;;;;;;5093828;28;19916;-74
2021/10/25 11:50:31;;;;;;;;;;;13.60;95.70;;;;;;5093578;28;19970;-74
2021/10/25 11:53:02;;;;;;;;;;;13.70;95.60;;;;;;5098818;28;19915;-75
2021/10/25 11:55:29;;;;;;;;;;;13.70;95.60;;;;;;5100442;28;19908;-75
2021/10/25 11:57:59;;;;;;;;;;;13.70;95.60;;;;;;5100450;28;19961;-75
2021/10/25 12:00:26;;;;;;;;;;;13.70;95.60;;;;;;5099773;28;19909;-74
2021/10/25 12:02:53;;;;;;;;;;;13.70;95.70;;;;;;5100475;28;19909;-75
2021/10/25 12:05:25;;;;;;;;;;;13.70;95.60;;;;;;5100479;28;19962;-75
2021/10/25 12:07:52;;;;;;;;;;;13.70;95.60;;;;;;5100286;28;19908;-74
2021/10/25 12:10:19;;;;;;;;;;;13.60;95.60;;;;;;5081983;28;20318;-75
2021/10/25 12:12:44;;;;;;;;;;;13.70;95.70;;;;;;5100279;28;19908;-73
2021/10/25 12:15:15;;;;;;;;;;;13.80;95.80;;;;;;5081668;28;19908;-75
2021/10/25 12:17:40;;;;;;;;;;;13.90;95.70;;;;;;5100279;28;20257;-75
2021/10/25 12:20:07;;;;;;;;;;;14.10;95.70;;;;;;5100130;28;19915;-75
2021/10/25 12:22:33;;;;;;;;;;;14.10;95.60;;;;;;5100224;28;20003;-74
2021/10/25 12:24:59;;;;;;;;;;;14.10;95.50;;;;;;5100160;28;19951;-75
2021/10/25 12:27:40;;;;;;;;;;;14.10;95.60;;;;;;5099978;28;19908;-74
2021/10/25 12:30:06;;;;;;;;;;;14.00;95.70;;;;;;5081573;28;19922;-75
2021/10/25 12:32:35;;;;;;;;;;;14.30;96.00;;;;;;5100595;28;19912;-74
2021/10/25 12:35:02;;;;;;;;;;;14.70;96.00;;;;;;5082041;28;19912;-75
2021/10/25 12:37:29;;;;;;;;;;;14.90;95.60;;;;;;5099981;28;19908;-74
2021/10/25 12:39:55;;;;;;;;;;;15.00;95.40;;;;;;5100051;28;19912;-74
2021/10/25 12:42:21;;;;;;;;;;;15.00;95.50;;;;;;5100154;28;20288;-74
2021/10/25 12:44:48;;;;;;;;;;;15.30;95.60;;;;;;5099612;28;19916;-74
2021/10/25 12:47:16;;;;;;;;;;;15.40;95.30;;;;;;5099337;28;19935;-74
2021/10/25 12:50:50;;;;;;;;;;;15.20;94.90;;;;;;5091787;28;19919;-75
2021/10/25 12:53:15;;;;;;;;;;;15.10;95.20;;;;;;5091344;28;19919;-75
2021/10/25 12:55:44;;;;;;;;;;;15.10;95.40;;;;;;5089909;28;19909;-74
2021/10/25 12:58:11;;;;;;;;;;;15.00;95.40;;;;;;5090802;28;19913;-74
2021/10/25 13:00:37;;;;;;;;;;;14.90;95.50;;;;;;5091161;28;20347;-74
2021/10/25 13:03:07;;;;;;;;;;;14.90;95.40;;;;;;5091081;28;19936;-74
2021/10/25 13:05:34;;;;;;;;;;;14.80;95.40;;;;;;5091265;28;20364;-74
2021/10/25 13:08:00;;;;;;;;;;;14.80;95.40;;;;;;5091101;28;19908;-74
2021/10/25 13:10:28;;;;;;;;;;;14.70;95.30;;;;;;5090626;28;19917;-75
2021/10/25 13:12:54;;;;;;;;;;;14.60;95.40;;;;;;5090452;28;19909;-75
2021/10/25 13:15:20;;;;;;;;;;;14.60;95.50;;;;;;5090753;28;19908;-75
2021/10/25 13:17:45;;;;;;;;;;;14.60;95.50;;;;;;5090822;28;20041;-75
2021/10/25 13:20:13;;;;;;;;;;;14.60;95.50;;;;;;5090800;28;20373;-76
2021/10/25 13:22:38;;;;;;;;;;;14.60;95.40;;;;;;5090754;28;19915;-75
2021/10/25 13:25:04;;;;;;;;;;;14.50;95.40;;;;;;5089199;28;19909;-75
2021/10/25 13:27:29;;;;;;;;;;;14.50;95.50;;;;;;5088847;28;19931;-75
2021/10/25 13:29:55;;;;;;;;;;;14.50;95.50;;;;;;5090510;28;19955;-76
2021/10/25 13:32:21;;;;;;;;;;;14.40;95.60;;;;;;5090610;28;20273;-75
2021/10/25 13:34:48;;;;;;;;;;;14.50;95.70;;;;;;5090360;28;19978;-74
2021/10/25 13:37:13;;;;;;;;;;;14.60;95.60;;;;;;5090498;28;19915;-75
2021/10/25 13:39:39;;;;;;;;;;;14.60;95.60;;;;;;5090376;28;19908;-74
2021/10/25 13:42:04;;;;;;;;;;;14.60;95.60;;;;;;5090199;28;19908;-75
2021/10/25 13:44:30;;;;;;;;;;;14.50;95.50;;;;;;5090225;28;20283;-74
2021/10/25 13:46:55;;;;;;;;;;;14.50;95.50;;;;;;5088909;28;19916;-74
2021/10/25 13:49:21;;;;;;;;;;;14.50;95.50;;;;;;5098564;28;19926;-74
2021/10/25 13:51:46;;;;;;;;;;;14.50;95.60;;;;;;5110626;28;19918;-74
2021/10/25 13:54:12;;;;;;;;;;;14.40;95.60;;;;;;5110523;28;19962;-75
2021/10/25 13:56:37;;;;;;;;;;;14.40;95.60;;;;;;5109881;28;19912;-74
2021/10/25 13:59:04;;;;;;;;;;;14.50;95.60;;;;;;5110398;28;20352;-76
2021/10/25 14:01:29;;;;;;;;;;;14.50;95.70;;;;;;5081834;28;20369;-75
2021/10/25 14:03:55;;;;;;;;;;;14.60;95.60;;;;;;5096719;28;20034;-75
2021/10/25 14:06:23;;;;;;;;;;;14.60;95.60;;;;;;5096648;28;20057;-76
2021/10/25 14:08:49;;;;;;;;;;;14.70;95.60;;;;;;5078329;28;19919;-75
2021/10/25 14:11:15;;;;;;;;;;;14.70;95.60;;;;;;5096147;28;19908;-74
2021/10/25 14:13:44;;;;;;;;;;;14.70;95.60;;;;;;5078108;28;20258;-74
2021/10/25 14:18:45;;;;;;;;;;;14.80;95.50;;;;;;5096539;28;19909;-75
2021/10/25 14:21:14;;;;;;;;;;;14.90;95.50;;;;;;5096291;28;19923;-74
2021/10/25 14:23:40;;;;;;;;;;;14.90;95.50;;;;;;5096307;28;19978;-75
2021/10/25 14:26:05;;;;;;;;;;;14.80;95.50;;;;;;5095785;28;20319;-74
2021/10/25 14:28:31;;;;;;;;;;;14.80;95.50;;;;;;5096210;28;19908;-74
2021/10/25 14:30:57;;;;;;;;;;;14.70;95.50;;;;;;5096178;28;19918;-74
2021/10/25 14:33:23;;;;;;;;;;;14.70;95.50;;;;;;5096110;28;19909;-74
2021/10/25 14:35:49;;;;;;;;;;;14.60;95.60;;;;;;5096108;28;19908;-75
2021/10/25 14:38:28;;;;;;;;;;;14.60;95.60;;;;;;5096094;28;19934;-75
2021/10/25 14:43:31;;;;;;;;;;;14.40;95.70;;;;;;5096440;28;19947;-75
2021/10/25 14:46:04;;;;;;;;;;;14.40;95.70;;;;;;5095924;28;19914;-74
2021/10/25 14:48:43;;;;;;;;;;;14.40;95.80;;;;;;5095672;28;19961;-75
2021/10/25 14:53:56;;;;;;;;;;;14.30;95.70;;;;;;5095588;28;19961;-74
2021/10/25 14:56:22;;;;;;;;;;;14.30;95.80;;;;;;5095645;28;19911;-75
2021/10/25 14:58:47;;;;;;;;;;;14.30;95.80;;;;;;5095826;28;20003;-76
2021/10/25 15:01:16;;;;;;;;;;;14.30;95.70;;;;;;5095656;28;19953;-75
2021/10/25 15:03:42;;;;;;;;;;;14.40;95.80;;;;;;5095611;28;19908;-74
2021/10/25 15:06:08;;;;;;;;;;;14.40;95.70;;;;;;5077199;28;19908;-74
2021/10/25 15:08:34;;;;;;;;;;;14.30;95.60;;;;;;5094926;28;20364;-76
2021/10/25 15:10:59;;;;;;;;;;;14.40;95.70;;;;;;5095136;28;19908;-75
2021/10/25 15:13:25;;;;;;;;;;;14.40;95.70;;;;;;5094288;28;19947;-74
2021/10/25 15:15:50;;;;;;;;;;;14.40;95.70;;;;;;5095221;28;19916;-74
2021/10/25 15:18:16;;;;;;;;;;;14.30;95.70;;;;;;5095254;28;19912;-75
2021/10/25 15:20:42;;;;;;;;;;;14.40;95.70;;;;;;5095132;28;19908;-75
2021/10/25 15:23:07;;;;;;;;;;;14.40;95.70;;;;;;5094701;28;19918;-75
2021/10/25 15:25:36;;;;;;;;;;;14.40;95.70;;;;;;5095052;28;19911;-74
2021/10/25 15:28:02;;;;;;;;;;;14.30;95.70;;;;;;5095107;28;19974;-74
2021/10/25 15:30:27;;;;;;;;;;;14.30;95.70;;;;;;5095047;28;20025;-76
2021/10/25 15:32:53;;;;;;;;;;;14.30;95.60;;;;;;5094877;28;19944;-76
2021/10/25 15:35:19;;;;;;;;;;;14.40;95.60;;;;;;5094890;28;19915;-74
2021/10/25 15:37:44;;;;;;;;;;;14.30;95.60;;;;;;5094409;28;19908;-73
2021/10/25 15:40:10;;;;;;;;;;;14.30;95.60;;;;;;5076729;28;19908;-75
2021/10/25 15:42:36;;;;;;;;;;;14.30;95.60;;;;;;5094839;28;20364;-74
2021/10/25 15:45:03;;;;;;;;;;;14.30;95.60;;;;;;5094704;28;19915;-76
2021/10/25 15:47:29;;;;;;;;;;;14.30;95.60;;;;;;5076385;28;19915;-77
2021/10/25 15:49:55;;;;;;;;;;;14.20;95.60;;;;;;5094345;28;19926;-76
2021/10/25 15:52:21;;;;;;;;;;;14.20;95.60;;;;;;5094016;28;19908;-75
2021/10/25 15:54:47;;;;;;;;;;;14.20;95.60;;;;;;5094620;28;20280;-76
2021/10/25 15:57:15;;;;;;;;;;;14.10;95.60;;;;;;5094589;28;19914;-75
2021/10/25 15:59:40;;;;;;;;;;;14.10;95.60;;;;;;5094502;28;19908;-75
2021/10/25 16:02:06;;;;;;;;;;;14.10;95.60;;;;;;5094304;28;19915;-75
2021/10/25 16:04:32;;;;;;;;;;;14.00;95.60;;;;;;5094521;28;19908;-74